My Meet Scores
Kaila Pohrte, Flipstar Gymnastics Academy - MyMeetScores.com
Top100 | Top Teams | Upcoming Meets | Completed Meets | Latest | Add Scores | Help| Support | Bookmark and Share

Kaila Pohrte, Flipstar Gymnastics Academy
Personal Bests
LevelVault BarsBeamFloorAA
8.7008.300 8.5008.70034.200
48.3508.100 8.2758.20032.925
69.1508.550 9.5009.20035.800
79.4009.225 9.5509.52537.200
89.3258.450 8.7509.52535.600
98.6256.150 8.0508.60031.075
Meet Scores
Date Meet Team Session Level Division Vault Bars Beam Floor AA
2015-03-05 Spring Hill Elgin Invitational Flipstar Gymnastics Academy 9 9 SR 8.450 15 5.800 14 8.050 13 8.525 16 30.825 12
2014-11-07 Illinois Judges Cup 2014 Flipstar Gymnastics Academy A1 9 16 and Ove 8.625 2 6.150 5 7.700 2 8.600 3 31.075 3
2011-04-30 2011 Region 5 Level 8 Championship Flipstar Gymnastics Academy SB 8 Senior B 8.800 22 8.375 42 7.825 47 8.125 47 33.125 44
2011-04-08 2011 Illinois Level 7, 8 State Meet Flipstar Gymnastics Academy 3 8 Sr.B 9.225 4 8.375 20 8.750 11 9.200 14 35.550 11
2011-03-04 Flip'r Meet Flipstar Gymnastics Academy 4 8 13+ 9.075 1 8.450 8 8.550 6 9.525 1 35.600 1
2011-02-26 Midwest Open Flipstar Gymnastics Academy 2B 8 Senior B 9.325 2 7.150 20 8.525 13 9.075 6 34.075 15
2011-01-08 Crossroads Classic Flipstar Gymnastics Academy 4A 8 Sr 8.450 2 7.000 4 8.000 3 8.675 2 32.125 4
2010-03-13 2010 Illinois Level 6 and 7 State Championships Flipstar Gymnastics Academy 7 Sr.B 9.300 14 8.875 19 9.125 10 9.375 4 36.675 8
2010-02-27 Midwest Open Flipstar Gymnastics Academy 6A 7 13 & up 9.250 10 9.225 12 9.550 2 9.000 19 37.025 7
2010-02-20 BIG Dream Classic 2010 Flipstar Gymnastics Academy 1A 7 13 & up 9.400 2 8.775 4 9.500 1 9.525 2 37.200 2
2010-02-12 IGI Chicago Style Gymnastics Meet Flipstar Gymnastics Academy 132 7 13 & Over 9.400 3 8.650 10T 9.150 4 9.125 4 36.325 4
2010-01-30 The King Arthur Invitational 2010 Flipstar Gymnastics Academy 7 Sr 9.150 8 8.950 7 9.400 2 9.375 4 36.875 2
2010-01-22 Bravo Classic 2010 Flipstar Gymnastics Academy 4A 7 13+ 9.250 2 8.550 7 8.250 12 9.100 9 35.150 7
2010-01-09 Crossroads Classic 2010 Flipstar Gymnastics Academy All Sessions Combined 7 Sr B 9.250 2 7.100 14 8.800 2 8.875 11 34.025 8T
2009-12-04 Ultimate Wish Classic Flipstar Gymnastics Academy 6 7 Jr12-14 8.925 21 8.800 18 9.175 7 8.350 33T 35.250 18
2009-03-21 2009 Illinois Level 7 State Championships Flipstar Gymnastics Academy 7 Jr.C 9.350 8 8.900 19 9.075 13 9.075 16 36.400 12
2009-03-07 Midwest Open 2009 Gym Kinetics Sports Complex 6B 7 12 9.125 4 8.675 12 8.925 8 9.175 5 35.900 6
2009-02-06 IGI Chicago Style Gymnastics Meet Gym Kinetics Gymnastics 212 7 12 Yr Olds 9.000 6T 8.875 7 9.075 4T 8.800 6 35.750 3
2009-01-23 2009 Bravo Classic Gym Kinetics Gymnastics 1B 7 12yrs 9.050 7 9.000 7 7.900 15 9.350 6 35.300 8
2009-01-09 Twistars Invitational 2009 Midnight Madness Gym Kinetics Sports Complex 7c 7 12 8.850 11 8.150 12 8.875 3 9.000 3 34.875 10
2008-12-13 St Nick Invite Gym Kinetics Sports Complex 8 7 JR 8.950 8 8.450 14 8.575 12 8.925 7 34.900 10
2008-03-15 2008 Illinois Level 6 State, Level 4 North Flipstar Gymnastics Academy 6 6 Jr.B 9.000 16 8.550 12 9.050 8 9.200 7 35.800 8
2008-03-07 Flip'r Meet 2008 Flipstar Gymnastics Academy 6 6 7-11yrs 8.175 17 8.250 19 9.400 7 9.000 4 34.825 13
2008-02-09 For Love or Money 2008 Gym Kinetics Gymnastics MoneyGym 6 11 to 12 8.725 28T 8.000 25T 9.500 4 8.375 43 34.600 22
2007-12-07 St. Nick Invite Flipstar Gymnastics Academy 10 6 Sr 9.150 3 8.550 18 8.550 22 8.700 14 34.950 12
2005-01-07 Bravo Classic 05 Gym Kinetics Sports Complex 4B 4 8 year o 8.350 8 8.100 6 8.275 8 8.200 7 32.925 6

www.lazysuits.com